メインページ
METAR-TAF:

METAR-TAF

空港 :

マルティニーク・エメ・セゼール国際空港

フォール=ド=フランス, マルティニーク

緯度: 14-36N, 経度: 061-00W, 海抜: 5m

現時点の気象観測

当レポートは25分前の21:00(UTC)に作成
の風 14kt
気温 29°C
湿度 70%
気圧 1015 hPa
視程10km以上
高度2300ftの雲はほとんどない

METAR: TFFF 162100Z AUTO 10014KT 9999 FEW023 29/23 Q1015 TEMPO 3000 SHRA SCT010CB SCT015TCU

時間: 17:25 (21:25 UTC)

予報

当レポートは5時間25分前の16:00(UTC)に作成
予報は16日の 18時(UTC)から 17日の 18時(UTC)まで有効
の風 10kt
視程10km以上
高度2500ftの雲は散在している
16日の 21時(UTC)から 17日の 15時(UTC)まで一時的に
視程: 3000m
高度1000ftの雲は散在している, 積乱雲.
高度1500ftの雲は散在している, 塔状積雲.
にわか雨
確率 40% :
17日の 03時(UTC)から 17日の 10時(UTC)まで一時的に
視程: 1000m
高度1000ftの雲は散在している, 積乱雲.
激しい雷雨, 雨

TAF: TFFF 161600Z 1618/1718 10010KT 9999 SCT025 TEMPO 1621/1715 3000 SHRA SCT010CB SCT015TCU PROB40 TEMPO 1703/1710 1000 TSRA SCT010CB

4,000以上の空港の気象観測と天気予報(METAR報とTAF報)

利用可能な観測所は地図上に黄色い丸と赤い丸で示す。

丸の上にカーソルを重ねると観測所名を参照できる。

次にクリックすると気象観測と天気予報を参照できる。

マップの切り替え:黒色「×」印の緑ボタンをクリックして拡大、「-」印の緑ボタンをクリックして縮小、緑色の三角印をクリックして隣りの地図に切り替え


METAR-TAF: